x

8454049 - Quonset Point, Ri (qptr1) Weather Station

7:06 - Wed 28th Jan 2015 All times are EST. -5 hours from GMT.

  • Wind
    3mph, 5mph gusts
  • Sea Temp 33°f
  • Ar Temp 24°f
  • Sea Pressure 1020.2mb
  • 8454049 - Quonset Point, Ri
  • 8454049 - Quonset Point, Ri

More Historic Weather Station data

Upgrade to MSW Pro to gain access to the past 30 days of data for over 8000 Wavebouys and Weather Stations around the globe.

Join Pro

Comparision Forecast

View Surf forecast
   
Qua 01/28 7:06 3 5 mph 1020.2mb 33f 24f
6:42 2 3 mph 1019.9mb 33f 24f
6:36 2 5 mph 1019.8mb 33f 24f
6:24 3 5 mph 1019.5mb 33f 25f
6:06 5 6 mph 1019.2mb 33f 25f
6:00 5 6 mph 1019.1mb 33f 25f
5:54 3
mph
1019mb 33f 25f
5:48 3 5 mph 1018.9mb 33f 25f
5:36 5 6 mph 1018.6mb 33f 25f
5:24 3 6 mph 1018.4mb 33f 25f
5:06 3 5 mph 1017.9mb 33f 25f
5:00  -  mph 1017.7mb 33f -
4:48 5 8 mph 1017.5mb 33f 25f
4:42 8 9 mph 1017.3mb 33f 25f
4:30 8 10 mph 1017.1mb 33f 26f
4:18  -  mph - 32f 26f
4:12  -  mph - 32f 26f
4:06  -  mph - 32f 26f
3:54 13 15 mph 1016.3mb 32f 26f
3:36 10 17 mph 1016.2mb 32f 26f
3:24 11 15 mph 1016mb 32f 26f
3:12 10 15 mph 1015.9mb 32f 26f
3:06 10 14 mph 1015.8mb 32f 26f
2:48 10 14 mph 1015.5mb 32f 25f
2:36 8 10 mph 1015.4mb 32f 24f
2:00 13 15 mph 1015.1mb 32f 23f
1:54 10 14 mph 1015.1mb 32f 24f
1:42 10 14 mph 1015mb 32f 23f
1:36 10 15 mph 1015mb 32f 22f
1:24 14 17 mph 1014.8mb 32f 22f
1:18 11 15 mph 1014.9mb 32f 22f
1:06 11 20 mph 1014.9mb 32f 22f
12:48 10 14 mph 1014.7mb 32f 22f
12:18 13 17 mph 1014.5mb 31f 21f
12:06 13 15 mph 1014.4mb 32f 20f
11:54 10 14 mph 1014.3mb 32f 20f
11:48 7 11 mph 1014.3mb 32f 20f
11:42 10 15 mph 1014.3mb 32f 20f
11:30 11 17 mph 1014.3mb 32f 19f
11:06 15 20 mph 1014.3mb 33f 19f
10:48 10 16 mph 1014.3mb 33f 19f
10:42 11 16 mph 1014.4mb 33f 19f
10:36 14 18 mph 1014.2mb 33f 19f
10:24 15 21 mph 1014mb 33f 19f
10:12 11 20 mph 1014mb 33f 19f
9:48 16 22 mph 1013.7mb 33f 18f
9:42 14 21 mph 1013.7mb 33f 19f
9:36 10 18 mph 1013.6mb 33f 18f
9:30 10 14 mph 1013.5mb 33f 17f
9:18 13 16 mph 1013.5mb 33f 17f
9:12 9 16 mph 1013.4mb 33f 17f
9:06 11 16 mph 1013.4mb 33f 16f
9:00 13 16 mph 1013.3mb 33f 16f
8:54 10 14 mph 1013.3mb 33f 16f
8:48 11 15 mph 1013.2mb 33f 15f
8:42 9 16 mph 1013.2mb 33f 16f
8:36 13 16 mph 1013mb 33f 15f
8:30 11 15 mph 1012.9mb 33f 15f
8:18 13 16 mph 1012.6mb 33f 15f
8:12 11 15 mph 1012.4mb 33f 15f
8:06 13 17 mph 1012.3mb 33f 15f
8:00 16 21 mph 1012.2mb 33f 15f
7:54 11 17 mph 1012.2mb 33f 15f
7:48 15 17 mph 1012mb 33f 15f
7:42 13 20 mph 1012mb 33f 15f
7:30 14 20 mph 1011.7mb 33f 14f
7:24 14 17 mph 1011.6mb 33f 14f
7:18 14 16 mph 1011.6mb 33f 15f
7:12 13 18 mph 1011.5mb 33f 14f
7:06 13 16 mph 1011.4mb 33f 14f
6:54 14 18 mph 1011.1mb 33f 14f
6:42 14 17 mph 1010.9mb 33f 14f
6:30 14 18 mph 1010.7mb 33f 14f
6:18 16 20 mph 1010.6mb 33f 14f
6:12 13 16 mph 1010.5mb 33f 14f
6:06 11 16 mph 1010.5mb 33f 14f
6:00 13 17 mph 1010.3mb 33f 14f
5:54 11 17 mph 1010.3mb 33f 14f
5:48 13 17 mph 1010.2mb - -
5:36 14 18 mph 1010mb - -
5:24 11 14 mph 1009.7mb 33f 14f
5:18 13 15 mph 1009.6mb 33f 14f
5:12 10 16 mph 1009.5mb 33f 14f
5:06 11 18 mph 1009.4mb 33f 14f
5:00 8 14 mph 1009.3mb 33f 14f
4:54 9 14 mph 1009.1mb 33f 14f
4:48 9 17 mph 1009mb 33f 14f
4:36 10 14 mph 1008.7mb 33f 14f
4:30 11 14 mph 1008.7mb 33f 14f
4:24 9 14 mph 1008.6mb 33f 14f
4:18 11 18 mph 1008.5mb 33f 14f
4:12 10 17 mph 1008.4mb 33f 15f
3:54 10 16 mph 1008.1mb 32f 15f
3:18 11 20 mph 1007.7mb 32f 15f
3:12 13 18 mph 1007.6mb 32f 15f
3:06 13 18 mph 1007.5mb 32f 15f
3:00 11 17 mph 1007.4mb 32f 15f
2:54 11 15 mph 1007.2mb 32f 15f
2:42 14 18 mph 1007mb 32f 15f
2:30 13 17 mph 1006.8mb 32f 15f
2:24 11 14 mph 1006.7mb 32f 15f
2:18 13 20 mph 1006.7mb 32f 15f
2:12 10 17 mph 1006.6mb 32f 15f
2:06 11 17 mph 1006.5mb 32f 15f
2:00 10 17 mph 1006.4mb 32f 16f
1:54 10 20 mph 1006.3mb 32f 15f
1:48 13 20 mph 1006.1mb 32f 15f
1:36 14 20 mph 1005.9mb 32f 15f
1:24 13 16 mph 1005.8mb 32f 16f
1:18 11 18 mph 1005.6mb 32f 15f
12:48 14 17 mph 1005.4mb 32f 15f
12:42 14 18 mph 1005.3mb 32f 15f
12:30 14 18 mph 1005.3mb 32f 15f
12:24 11 20 mph 1005.3mb 32f 15f
12:18 13 15 mph 1005.3mb 32f 15f
12:06 13 17 mph 1005.2mb 32f 15f
12:00 11 15 mph 1005.2mb 32f 15f
Ter 01/27 11:54 11 17 mph 1005.1mb 32f 15f
11:42 15 21 mph 1004.9mb 32f 15f
11:36 14 23 mph 1004.9mb 32f 15f
11:18 15 21 mph 1004.8mb 33f 15f
11:12 16 20 mph 1004.7mb 33f 15f
11:06 14 22 mph 1004.6mb 33f 16f
11:00 13 20 mph 1004.6mb 33f 16f
10:48 14 18 mph 1004.5mb 33f 15f
10:42 15 21 mph 1004.4mb 33f 16f
10:30 11 18 mph 1004.3mb 33f 16f
10:24 14 22 mph 1004.2mb 33f 16f
10:18 17 24 mph 1004.1mb 33f 16f
10:06 11 18 mph 1003.9mb 33f 16f
10:00 11 17 mph 1003.8mb 33f 16f
9:54 14 18 mph 1003.7mb 33f 16f
9:42 14 24 mph 1003.6mb 33f 16f
9:36 18 24 mph 1003.4mb 33f 16f
9:30 15 20 mph 1003.4mb 33f 16f
9:24 11 20 mph 1003.3mb 33f 17f
9:18 15 20 mph 1003.2mb 33f 16f
9:12 15 21 mph 1003.1mb 33f 17f
9:06 14 24 mph 1003.1mb 33f 17f
9:00 17 24 mph 1003mb 33f 17f
8:54 17 25 mph 1002.9mb 33f 17f
8:42 20 24 mph 1002.7mb 33f 17f
8:36 14 25 mph 1002.7mb 33f 17f
8:30 18 26 mph 1002.6mb 33f 17f
8:24 17 23 mph 1002.6mb 33f 17f
8:18 17 23 mph 1002.5mb 33f 17f
8:12 17 25 mph 1002.3mb 33f 17f
8:06 20 26 mph 1002.2mb 33f 17f
8:00 13 20 mph 1002.2mb 33f 17f
7:54 15 24 mph 1002.1mb 33f 17f
7:48 18 23 mph 1002mb 33f 17f
7:42 17 28 mph 1002mb 33f 17f
7:36 20 24 mph 1001.8mb 33f 17f
7:30 15 24 mph 1001.8mb 33f 18f
7:24 18 25 mph 1001.6mb 33f 18f
7:18 20 25 mph 1001.5mb 33f 18f
7:12 16 26 mph 1001.4mb 33f 18f
7:06 18 25 mph 1001.3mb 33f 18f
7:00 15 22 mph 1001.2mb 33f 18f
6:54 16 23 mph 1001.1mb 33f 18f
6:42 17 24 mph 1001mb 33f 19f
6:30 20 25 mph 1000.7mb 33f 20f
6:24 15 23 mph 1000.8mb 33f 20f
6:18 17 22 mph 1000.6mb 33f 20f
6:12 17 26 mph 1000.6mb 33f 20f
6:06 16 24 mph 1000.4mb 33f 20f
6:00 14 22 mph 1000.4mb 33f 20f
5:42 14 20 mph 1000mb 33f 19f
5:36 14 23 mph 999.9mb 33f 19f
5:30 11 20 mph 999.9mb 33f 19f
5:24 14 22 mph 999.8mb 33f 19f
5:18 14 21 mph 999.7mb 33f 19f
5:06 15 21 mph 999.5mb 33f 20f
5:00 15 21 mph 999.5mb 33f 20f
4:54 15 24 mph 999.3mb 33f 21f
4:48 18 29 mph 999mb 33f 21f
4:42 24 32 mph 998.9mb 33f 21f
4:36 29 34 mph 998.7mb 33f 21f
4:30 29 41 mph 998.6mb 33f 21f
4:24 24 36 mph 998.6mb 33f 22f
4:18 25 33 mph 998.5mb 33f 21f
4:12 21 31 mph 998.5mb 33f 21f
4:06 24 38 mph 998.5mb 33f 21f
3:42 20 26 mph 998.6mb 33f 21f
3:36 22 29 mph 998.5mb 33f 21f
3:30 20 29 mph 998.4mb 33f 21f
3:12 23 31 mph 998.2mb 33f 21f
3:06 25 37 mph 998.2mb 33f 21f
3:00 31 45 mph 997.9mb 33f 21f
2:54 22 29 mph 998.1mb 33f 21f
2:48 21 29 mph 998.1mb 33f 21f
2:36 23 31 mph 998mb 33f 20f
2:24 25 36 mph 997.8mb 33f 20f
2:18 26 36 mph 997.8mb 33f 20f
2:12 25 32 mph 997.7mb 33f 20f
1:54 22 30 mph 997.6mb 33f 20f
1:48 22 30 mph 997.6mb 33f 20f
1:42 25 36 mph 997.5mb 33f 20f
1:36 26 37 mph 997.5mb 33f 20f
1:18 25 34 mph 997.6mb 33f 20f
1:12 25 36 mph 997.5mb 33f 19f
1:06 25 37 mph 997.5mb 33f 19f
1:00 20 32 mph 997.5mb 33f 19f
12:54 20 26 mph 997.4mb 33f 19f
12:48 21 34 mph 997.5mb 33f 19f
12:42 25 33 mph 997.3mb 33f 19f
12:30 23 33 mph 997.3mb 33f 19f
12:24 25 30 mph 997.3mb 33f 19f
12:18 21 30 mph 997.3mb 33f 19f
12:12 24 37 mph 997.3mb 33f 19f
12:06 29 37 mph 997.4mb 33f 19f
12:00 20 25 mph 997.5mb 33f 19f
11:54 24 38 mph 997.5mb 33f 19f
11:48 22 29 mph 997.4mb 33f 18f
11:42 23 30 mph 997.4mb 33f 18f
11:36 22 26 mph 997.5mb 33f 18f
11:30 20 26 mph 997.5mb 33f 18f
11:24 18 29 mph 997.5mb 33f 18f
11:12 21 28 mph 997.8mb 33f 18f
11:06 22 38 mph 997.8mb 33f 18f
11:00 28 34 mph 997.7mb 33f 18f
10:48 23 32 mph 997.8mb 33f 18f
10:42 24 29 mph 998mb 33f 18f
10:36 23 34 mph 998.2mb 33f 18f
10:30 24 29 mph 998.2mb 33f 17f
10:24 24 31 mph 998.2mb 33f 17f
10:18 23 29 mph 998.1mb 33f 17f
10:12 23 29 mph 998.2mb 33f 18f
10:06 25 31 mph 998mb 33f 17f
9:54 25 34 mph 997.9mb 33f 17f
9:48 26 33 mph 997.7mb 33f 17f
9:42 26 37 mph 997.6mb 33f 18f
9:36 29 39 mph 997.5mb 33f 18f
9:24 34 46 mph 997.3mb 32f 18f
9:18 34 40 mph 997.1mb 32f 18f
9:12 36 41 mph 997.1mb 32f 18f
9:06 38 43 mph 997.1mb 32f 18f
9:00 37 46 mph 997.1mb 32f 18f
8:54 37 45 mph 996.9mb 32f 18f
8:48 38 47 mph 996.8mb 32f 18f
8:42 37 44 mph 996.9mb 32f 18f
8:36 34 49 mph 997mb 32f 19f
8:30 38 48 mph 997.1mb 33f 19f
8:24 36 45 mph 997.1mb 33f 18f
8:18 37 45 mph 997.3mb 33f 19f
8:12 39 46 mph 997.3mb 33f 19f
8:06 38 48 mph 997.6mb 33f 19f
7:54 34 47 mph 997.9mb 33f 19f
7:48 39 48 mph 997.9mb 33f 19f
7:30 37 46 mph 998.2mb 33f 19f
7:18 33 47 mph 998.3mb 33f 19f
7:06 34 43 mph 998.1mb 33f 19f
7:00 31 43 mph 998.4mb 33f 19f
6:54 34 45 mph 998.5mb 33f 18f
6:48 29 46 mph 998.5mb 33f 18f
6:42 30 40 mph 998.3mb 33f 18f
6:36 32 45 mph 998.1mb 33f 17f
6:30 31 46 mph 998.1mb 33f 17f
6:18 34 45 mph 998.2mb 33f 17f
6:12 31 43 mph 998.3mb 33f 18f
6:06 31 47 mph 998.4mb 33f 18f
6:00 33 48 mph 998mb 33f 17f
5:54 34 43 mph 997.9mb 34f 17f
5:48 37 45 mph 998.1mb 34f 18f
5:42 29 41 mph 998.3mb 34f 18f
5:36 32 44 mph 997.9mb 34f 18f
5:30 36 44 mph 998.1mb 34f 18f
5:24 34 45 mph 997.9mb 34f 18f
5:18 37 45 mph 997.6mb 34f 18f
5:12 34 48 mph 997.7mb 34f 18f
5:00 34 48 mph 997.6mb 34f 18f
4:54 37 54 mph 997.4mb 34f 18f
4:48 37 47 mph 997.5mb 34f 18f
4:42 36 53 mph 997.5mb 34f 18f
4:36 38 47 mph 997.3mb 34f 18f
4:30 33 44 mph 997.4mb 34f 18f
4:24 36 53 mph 997.4mb 34f 18f
4:12 37 52 mph 997.3mb 34f 18f
4:06 38 49 mph 997.4mb 34f 18f
3:54 38 52 mph 997.9mb 34f 18f
3:48 36 45 mph 997.9mb 34f 18f
3:42 38 48 mph 998.2mb 34f 18f
3:36 33 43 mph 998.6mb 34f 18f
3:30 33 44 mph 998.6mb 34f 18f
3:24 37 48 mph 998.5mb 34f 18f
3:18 37 47 mph 998.4mb 34f 18f
3:12 33 46 mph 998.3mb 34f 18f
3:06 34 46 mph 998.5mb 34f 18f
3:00 33 43 mph 998.8mb 34f 18f
2:54 32 45 mph 999mb 34f 18f
2:48 37 46 mph 998.8mb 34f 18f
2:42 36 44 mph 999.2mb 34f 18f
2:36 34 41 mph 999.3mb 34f 18f
2:24 36 46 mph 999.9mb 34f 19f
2:18 36 43 mph 1000.1mb 34f 19f
2:12 38 47 mph 1000.2mb 34f 19f
2:06 36 45 mph 1000.2mb 34f 19f
2:00 34 44 mph 1000.2mb 34f 19f
1:54 34 47 mph 1000.4mb 34f 19f
1:48 36 48 mph 1000.4mb 34f 20f
1:36 34 47 mph 1000.4mb 35f 20f
1:24 36 47 mph 1000.5mb 34f 20f
1:18 34 49 mph 1000.8mb 35f 21f
1:12 39 46 mph 1000.7mb 35f 21f
1:06 36 46 mph 1000.9mb 35f 21f
1:00 38 46 mph 1001.1mb 35f 22f
12:48 34 45 mph 1001.7mb 35f 22f
12:42 36 41 mph 1001.6mb 35f 22f
12:36 38 44 mph 1001.6mb 35f 22f
12:30 32 41 mph 1001.8mb 35f 22f
12:18 30 40 mph 1002mb 35f 23f
12:12 30 43 mph 1002mb 35f 23f
12:06 30 38 mph 1002.4mb 35f 24f
12:00 39 51 mph 1002.6mb 35f 28f
Seg 01/26 11:54 36 48 mph 1002.8mb 35f 29f
11:48 37 49 mph 1002.9mb 35f 29f
11:36 37 47 mph 1003.3mb 35f 29f
11:24 41 48 mph 1004mb 35f 29f
11:18 39 46 mph 1004.3mb 35f 29f
11:12 37 48 mph 1004.3mb 35f 29f
10:54 36 47 mph 1004.7mb 35f 29f
10:42 39 47 mph 1005.1mb 35f 29f
10:36 36 46 mph 1005.5mb 35f 29f
10:24 33 41 mph 1006.3mb 35f 29f
10:18 33 40 mph 1006.5mb 35f 29f
10:12 34 45 mph 1006.3mb 35f 29f
10:06 33 40 mph 1006.4mb 35f 29f
10:00 34 41 mph 1006.5mb 35f 29f
9:54 29 40 mph 1006.7mb 35f 29f
9:36 34 40 mph 1007.8mb 35f 29f
9:30 33 39 mph 1008.2mb 35f 29f
9:12 36 44 mph 1008.7mb 35f 29f
9:06 33 40 mph 1009mb 35f 30f
9:00 31 36 mph 1009.1mb 35f 29f
8:54 31 37 mph 1009.4mb 35f 29f
8:48  -  mph 1009.7mb 35f 29f
8:42  -  mph 1010mb 35f 29f
8:36  -  mph 1010mb 35f 29f
8:30 29 37 mph 1010.2mb 35f 29f
8:24 30 36 mph 1010.4mb 35f 29f
8:18 29 37 mph 1010.9mb 35f 29f
8:12 29 36 mph 1011.2mb 35f 29f
8:06 30 36 mph 1011.4mb 35f 29f
8:00 30 34 mph 1011.3mb 35f 29f
7:48 28 33 mph 1011.4mb 35f 29f
7:42 30 34 mph 1011.5mb 35f 29f
7:36 28 32 mph 1011.6mb 35f 29f
7:30 29 33 mph 1011.9mb 36f 29f
7:12 25 29 mph 1012.6mb 36f 30f
7:06 23 31 mph 1012.9mb 36f 29f
7:00 24 29 mph 1012.9mb 36f 29f
6:42 25 29 mph 1012.8mb 36f 29f
6:12 23 26 mph 1013mb 36f 29f
6:06 25 29 mph 1013mb 36f 29f
5:54 23 26 mph 1013.1mb 36f 29f
5:30 22 24 mph 1013.7mb 36f 29f
5:12 21 26 mph 1014mb 36f 29f
4:54 20 25 mph 1014.1mb 36f 29f
4:48 22 24 mph 1014.1mb 36f 29f
4:30 22 24 mph 1013.8mb 36f 29f
4:18 23 26 mph 1013.6mb 36f 29f
4:12 22 24 mph 1013.9mb 36f 29f
4:06 22 23 mph 1013.9mb 36f 29f
4:00 17 21 mph 1014.1mb 36f 28f
3:48 16 18 mph 1014.1mb 36f 28f
3:42 17 21 mph 1014.1mb 36f 27f
3:30 17 20 mph 1014.2mb 36f 27f
3:18 15 18 mph 1014.2mb 36f 26f
3:06 16 20 mph 1014.3mb 36f 26f
2:48 18 21 mph 1014.5mb 36f 26f
2:42 18 20 mph 1014.8mb 36f 25f
2:36 16 21 mph 1014.8mb 36f 25f
2:30 15 20 mph 1014.8mb 36f 25f
2:24 17 21 mph 1014.9mb 36f 25f
2:18 17 22 mph 1015mb 36f 25f
2:12 16 21 mph 1014.9mb 36f 25f
2:06 17 22 mph 1014.8mb 36f 25f
1:48 20 23 mph 1014.8mb 36f 25f
1:36 18 22 mph 1015.1mb 36f 25f
1:18 20 23 mph 1015.7mb 36f 24f
1:12 20 23 mph 1015.7mb 36f 24f
1:06 21 23 mph 1015.6mb 36f 24f
1:00 20 25 mph 1015.8mb 36f 24f
12:54 20 24 mph 1015.8mb 36f 24f
12:42 18 23 mph 1016.1mb 36f 23f
12:36 17 22 mph 1016.2mb 36f 22f
12:30 18 22 mph 1016.2mb 36f 22f
12:18 18 22 mph 1016.6mb 36f 21f
12:06 18 22 mph 1017mb 36f 22f
11:54 17 21 mph 1017.3mb 36f 21f
11:42 16 21 mph 1017.7mb 36f 21f
11:36 17 18 mph 1017.8mb 36f 20f
11:30 17 21 mph 1017.8mb 36f 20f
11:18 17 20 mph 1017.9mb 36f 20f
11:12 15 21 mph 1018.1mb 36f 20f
10:54 15 20 mph 1018.7mb 36f 20f
10:48 15 18 mph 1018.8mb 37f 19f
10:36 15 20 mph 1018.7mb 37f 19f
10:24 16 20 mph 1018.8mb 37f 19f
10:12 14 18 mph 1018.9mb 37f 19f
10:06 15 18 mph 1018.9mb 37f 19f
9:48 18 22 mph 1018.6mb 37f 18f
9:24 18 24 mph 1018.5mb 37f 18f
9:12 18 23 mph 1018.6mb 36f 18f
9:00 17 22 mph 1018.6mb 36f 18f
8:54 17 22 mph 1018.7mb 36f 18f
8:48 17 21 mph 1018.7mb 36f 18f
8:42 17 22 mph 1018.7mb 36f 18f
8:30 17 21 mph 1018.8mb 36f 17f
8:24 17 21 mph 1018.9mb 36f 17f
8:18 18 22 mph 1018.9mb 36f 18f
8:12 17 21 mph 1018.9mb 36f 18f
8:06 17 20 mph 1019mb 36f 18f
8:00 16 21 mph 1019mb 36f 18f
7:54 17 21 mph 1019mb 36f 18f
7:42 15 20 mph 1019.1mb 37f 18f
7:36 17 21 mph 1019.1mb 37f 18f
7:24 16 18 mph 1019.1mb 37f 18f
7:18 16 18 mph 1019.2mb 37f 18f
7:06 15 20 mph 1019.1mb 37f 18f
6:48 17 20 mph 1018.8mb 37f 19f
6:36 16 18 mph 1018.7mb 37f 19f
6:30 16 20 mph 1018.9mb 37f 19f
6:18 16 18 mph 1018.9mb 37f 20f
6:12 16 20 mph 1019mb 37f 19f
6:06 17 20 mph 1019mb 37f 19f
5:54 16 20 mph 1019mb 37f 19f
5:48 16 21 mph 1018.9mb 37f 19f
5:42 16 20 mph 1018.9mb 37f 20f
5:24 17 20 mph 1018.3mb 37f 20f
5:06 16 21 mph 1018.4mb 37f 20f
5:00 14 20 mph 1018.4mb 37f 21f
4:48 16 18 mph 1018.2mb 37f 21f
4:42 14 20 mph 1018mb 37f 21f
4:36 15 18 mph 1018.1mb 37f 21f
3:54 17 20 mph 1017.9mb 37f 22f
3:36 17 22 mph 1017.8mb 37f 22f
3:30 17 21 mph 1017.8mb 37f 22f
2:54 14 17 mph 1017.7mb 37f 23f
2:42 14 21 mph 1017.7mb 37f 23f
2:30 14 18 mph 1017.6mb 37f 23f
2:24 15 21 mph 1017.4mb 36f 23f
2:18 16 21 mph 1017.3mb 36f 23f
2:12 18 23 mph 1017.3mb 36f 24f
1:48 11 14 mph 1017.2mb - 24f
1:42 11 16 mph 1017.2mb - 24f
1:24 11 16 mph 1016.9mb 36f 24f
1:18 11 15 mph 1016.9mb 36f 24f
1:06 10 14 mph 1017mb 36f 24f
12:54 11 14 mph 1016.7mb 36f 24f
12:36 10 14 mph 1016.9mb 36f 24f
12:30 9 10 mph 1016.9mb 36f 24f
12:12 9 11 mph 1016.6mb 36f 24f
12:06 8 11 mph 1016.6mb 36f 24f
Dom 01/25 11:54 9 13 mph 1016.7mb 36f 24f
11:30 7 10 mph 1016.6mb 36f 25f
11:12 8 10 mph 1016.3mb 36f 25f
11:00 7 10 mph 1016.2mb 36f 25f
10:36 6 10 mph 1015.6mb 37f 26f
10:30 7 9 mph 1015.4mb 37f 26f
10:06 6 8 mph 1015.2mb 37f 26f
9:54 7 10 mph 1015.3mb 37f 27f
9:48 8 10 mph 1015.1mb 37f 27f
9:42 6 9 mph 1015.1mb 37f 27f
9:36 8 10 mph 1014.9mb 37f 27f
9:30 9 11 mph 1014.6mb 37f 27f
9:24 7 10 mph 1014.5mb 37f 27f
9:18 8 13 mph 1014.4mb 37f 27f
9:12 10 14 mph 1014.1mb 37f 27f
9:06 9 11 mph 1014mb 37f 27f
9:00 8 11 mph 1014.1mb 37f 28f
8:54 10 15 mph 1013.9mb 37f 28f
8:30 11 17 mph 1013.3mb 37f 28f
8:24 10 14 mph 1013.4mb 37f 28f
8:18 8 14 mph 1013.5mb 37f 29f
8:12 10 14 mph 1013.4mb 37f 29f
8:00 8 10 mph 1013.2mb 37f 29f
7:54 7 9 mph 1013.2mb 37f 29f
7:48 7 14 mph 1013.2mb 37f 29f
7:36 8 11 mph 1012.9mb 37f 29f
7:24 9 13 mph 1012.8mb 37f 30f
7:12 7 11 mph 1012.8mb 37f 30f
6:48 7 11 mph 1012.1mb 37f 31f
6:30 9 15 mph 1011.9mb 37f 31f
6:18 10 15 mph 1011.4mb 37f 31f
5:54 11 14 mph 1010.4mb 37f 32f
5:42 13 17 mph 1009.9mb 37f 32f
5:06 11 16 mph 1009.1mb 37f 33f
5:00 14 17 mph 1009mb 37f 33f
4:48 8 14 mph 1008.8mb 37f 34f
4:36 9 11 mph 1008.6mb 37f 34f
4:30 11 15 mph 1008.5mb 37f 34f
4:12 8 16 mph 1007.9mb 37f 35f
3:48 14 22 mph 1007.1mb 37f 35f
3:36 13 16 mph 1006.9mb 37f 36f
3:30 13 21 mph 1006.9mb 37f 36f
3:12 11 21 mph 1006.7mb 37f 37f
3:06 15 23 mph 1006.6mb 37f 37f
2:54 17 28 mph 1006.4mb 37f 37f
2:48 17 25 mph 1006.3mb 37f 37f
2:30 20 24 mph 1005.9mb 37f 37f
2:18 16 22 mph 1005.6mb 37f 38f
2:00 15 25 mph 1005.1mb 37f 38f
1:42 14 17 mph 1004.8mb 37f 38f
1:30 17 23 mph 1004.6mb 37f 38f
1:18 14 24 mph 1004.2mb 37f 39f
1:12 16 24 mph 1004.1mb 37f 39f
12:54 18 24 mph 1003.8mb 36f 38f
12:36 15 23 mph 1003.6mb 36f 39f
12:18 15 18 mph 1003.7mb 36f 38f
12:00 13 17 mph 1003.9mb 36f 38f
11:54 10 21 mph 1003.9mb 36f 39f
11:48 13 24 mph 1003.8mb 36f 39f
11:36 20 26 mph 1003.7mb 36f 39f
11:06 20 25 mph 1003.8mb 36f 38f
10:48 18 28 mph 1003.7mb 36f 38f
9:48 16 22 mph 1003.3mb 36f 36f
9:42 15 21 mph 1003.3mb 36f 36f
9:30 15 17 mph 1003.1mb 36f 36f
9:12 17 20 mph 1002.8mb 36f 35f
8:54 15 17 mph 1002.5mb 36f 35f
8:42 15 17 mph 1002.3mb 36f 34f
8:36 15 21 mph 1002.2mb 37f 34f
8:00 18 23 mph 1001.7mb 37f 34f
7:48 17 20 mph 1001.3mb 37f 34f
7:30 15 20 mph 1001mb 37f 33f
7:18 14 18 mph 1000.7mb 37f 33f
7:12 16 20 mph 1000.6mb 37f 33f
7:06 16 20 mph 1000.6mb 37f 33f
6:54 16 21 mph 1000.3mb 37f 33f
6:48 15 18 mph 1000.1mb 37f 33f
6:42 13 16 mph 1000.1mb 37f 32f
6:36 14 16 mph 1000mb 37f 32f
6:18 15 23 mph 999.7mb 37f 32f
6:06 15 21 mph 999.5mb 37f 33f
5:48 15 20 mph 999.2mb 37f 33f
5:36 16 22 mph 998.9mb 37f 33f
5:30 16 22 mph 998.7mb 37f 33f
5:24 15 21 mph 998.6mb 37f 33f
5:00 18 22 mph 998.1mb 37f 34f
4:54 17 24 mph 998mb 37f 34f
4:42 18 24 mph 997.8mb 37f 34f
4:30 20 24 mph 997.6mb 37f 34f
4:24 18 22 mph 997.5mb 37f 34f
4:18 17 21 mph 997.5mb 37f 34f
4:12 15 24 mph 997.4mb 37f 34f
3:42 17 23 mph 996.9mb 37f 33f
3:24 10 21 mph 996.8mb 37f 33f
3:18 10 17 mph 996.7mb 37f 33f
3:12 13 20 mph 996.7mb 37f 33f
2:48 10 21 mph 996.3mb 37f 33f
2:30 13 20 mph 996mb 37f 33f
2:18 14 22 mph 996mb 37f 33f
1:48 14 20 mph 995.3mb 37f -
1:36 13 20 mph 995mb 37f -
1:24 14 22 mph 994.6mb 37f 33f